Time;durP1;ratioP1;P1;durP2;ratioP2;P2;SDS_P1;SDS_P2;PMS_P1;PMS_P2;Temp;Humidity;BMP_temperature;BMP_pressure;BME280_temperature;BME280_humidity;BME280_pressure;Samples;Min_cycle;Max_cycle;Signal;HPM_P1;HPM_P2
2024/01/31 00:01:17;;;;;;;8.27;4.78;;;10.20;99.90;;;;;;5056610;28;20547;-17
2024/01/31 00:03:44;;;;;;;9.00;4.93;;;10.20;99.90;;;;;;5057775;28;20033;-17
2024/01/31 00:06:13;;;;;;;6.72;3.90;;;10.20;99.90;;;;;;5058609;28;20028;-17
2024/01/31 00:08:39;;;;;;;9.18;4.57;;;10.20;99.90;;;;;;5057477;28;20444;-16
2024/01/31 00:11:08;;;;;;;8.55;4.90;;;10.20;99.90;;;;;;5060774;28;20182;-17
2024/01/31 00:13:34;;;;;;;8.70;4.60;;;10.10;99.90;;;;;;5062275;28;20510;-19
2024/01/31 00:16:00;;;;;;;8.35;4.82;;;10.20;99.90;;;;;;5057714;28;20060;-19
2024/01/31 00:18:26;;;;;;;9.45;5.00;;;10.20;99.90;;;;;;5057502;28;20033;-19
2024/01/31 00:20:51;;;;;;;8.30;4.80;;;10.30;99.90;;;;;;5041507;28;20040;-18
2024/01/31 00:23:19;;;;;;;9.93;5.18;;;10.30;99.90;;;;;;5053768;28;20029;-19
2024/01/31 00:25:45;;;;;;;9.57;5.05;;;10.20;99.90;;;;;;5088050;27;20036;-19
2024/01/31 00:28:12;;;;;;;8.63;4.90;;;10.20;99.90;;;;;;5039147;28;20127;-18
2024/01/31 00:30:38;;;;;;;9.60;4.55;;;10.30;99.90;;;;;;5073771;28;20048;-19
2024/01/31 00:33:04;;;;;;;8.80;4.93;;;10.20;99.90;;;;;;5075927;28;20540;-20
2024/01/31 00:35:30;;;;;;;9.18;4.60;;;10.30;99.90;;;;;;5055086;28;20389;-20
2024/01/31 00:37:55;;;;;;;9.07;4.83;;;10.20;99.90;;;;;;5057078;28;20612;-20
2024/01/31 00:40:21;;;;;;;9.38;4.80;;;10.30;99.90;;;;;;5074023;28;20032;-19
2024/01/31 00:42:47;;;;;;;9.83;4.47;;;10.20;99.90;;;;;;5058930;28;20563;-20
2024/01/31 00:45:14;;;;;;;8.90;4.97;;;10.20;99.90;;;;;;5056173;28;20155;-19
2024/01/31 00:47:43;;;;;;;8.52;4.90;;;10.30;99.90;;;;;;5056452;28;20013;-18
2024/01/31 00:50:10;;;;;;;10.57;5.20;;;10.20;99.90;;;;;;5058288;28;20048;-18
2024/01/31 00:52:36;;;;;;;8.70;4.78;;;10.30;99.90;;;;;;5060700;28;20552;-18
2024/01/31 00:55:02;;;;;;;8.65;4.72;;;10.20;99.90;;;;;;5058908;28;20032;-19
2024/01/31 00:57:28;;;;;;;8.70;4.93;;;10.30;99.90;;;;;;5055847;28;20032;-19
2024/01/31 00:59:53;;;;;;;9.70;4.90;;;10.20;99.90;;;;;;5059936;28;20596;-18
2024/01/31 01:02:19;;;;;;;7.13;3.65;;;10.30;99.90;;;;;;5056467;28;20111;-19
2024/01/31 01:04:45;;;;;;;7.00;4.03;;;10.80;99.90;;;;;;5057715;28;20035;-19
2024/01/31 01:07:10;;;;;;;7.37;3.87;;;10.20;99.90;;;;;;5058807;28;21000;-18
2024/01/31 01:09:36;;;;;;;8.25;4.88;;;10.30;99.90;;;;;;5056032;28;20025;-19
2024/01/31 01:12:03;;;;;;;8.07;4.30;;;9.60;99.90;;;;;;5061635;28;20020;-19
2024/01/31 01:14:28;;;;;;;8.10;4.35;;;10.20;99.90;;;;;;5058092;28;20561;-19
2024/01/31 01:16:54;;;;;;;8.82;4.43;;;10.30;99.90;;;;;;5074446;28;20116;-21
2024/01/31 01:19:20;;;;;;;7.67;4.33;;;10.20;99.90;;;;;;5059738;28;20035;-19
2024/01/31 01:21:45;;;;;;;8.57;4.38;;;10.50;99.90;;;;;;5059694;28;20473;-20
2024/01/31 01:24:11;;;;;;;8.50;4.90;;;10.20;99.90;;;;;;5056958;28;20039;-19
2024/01/31 01:26:40;;;;;;;9.15;4.80;;;10.30;99.90;;;;;;5058848;28;20021;-20
2024/01/31 01:29:06;;;;;;;8.87;4.70;;;10.20;99.90;;;;;;5057650;28;20361;-21
2024/01/31 01:31:32;;;;;;;8.40;4.63;;;10.20;99.90;;;;;;5056565;28;20722;-19
2024/01/31 01:33:59;;;;;;;7.93;4.55;;;10.30;99.90;;;;;;5055725;28;20060;-16
2024/01/31 01:36:25;;;;;;;9.00;4.53;;;10.20;99.90;;;;;;5056125;28;20028;-17
2024/01/31 01:38:51;;;;;;;8.33;4.63;;;10.20;99.90;;;;;;5042789;28;20033;-17
2024/01/31 01:41:16;;;;;;;8.73;4.50;;;10.30;99.90;;;;;;5061168;28;20024;-17
2024/01/31 01:43:42;;;;;;;9.67;5.50;;;10.20;99.90;;;;;;5061877;28;20021;-18
2024/01/31 01:46:20;;;;;;;9.77;4.93;;;10.30;99.90;;;;;;5058811;28;20283;-18
2024/01/31 01:48:47;;;;;;;9.20;4.22;;;10.20;99.90;;;;;;5061471;28;20024;-17
2024/01/31 01:51:18;;;;;;;8.98;4.35;;;10.20;99.90;;;;;;5057003;28;20060;-17
2024/01/31 01:53:45;;;;;;;8.90;4.40;;;10.20;99.90;;;;;;5053570;28;20270;-17
2024/01/31 01:56:14;;;;;;;8.10;4.53;;;10.20;99.90;;;;;;5064904;28;20539;-18
2024/01/31 01:58:41;;;;;;;9.00;4.80;;;10.30;99.90;;;;;;5060589;28;20039;-17
2024/01/31 02:01:07;;;;;;;9.13;4.47;;;10.20;99.90;;;;;;5063412;28;20048;-17
2024/01/31 02:03:34;;;;;;;9.38;4.75;;;10.20;99.90;;;;;;5064161;28;20758;-17
2024/01/31 02:06:01;;;;;;;7.27;3.63;;;10.20;99.90;;;;;;5059292;28;20380;-16
2024/01/31 02:08:27;;;;;;;8.20;4.28;;;10.30;99.90;;;;;;5059776;28;20030;-18
2024/01/31 02:10:53;;;;;;;9.23;4.75;;;10.20;99.90;;;;;;5063203;28;20119;-18
2024/01/31 02:13:19;;;;;;;8.65;4.57;;;10.20;99.90;;;;;;5078214;28;20288;-17
2024/01/31 02:15:55;;;;;;;8.07;4.27;;;10.20;99.90;;;;;;5062280;28;20036;-17
2024/01/31 02:18:22;;;;;;;8.20;4.22;;;10.20;99.90;;;;;;5057029;28;20243;-17
2024/01/31 02:20:48;;;;;;;8.93;4.22;;;10.20;99.90;;;;;;5061256;28;20413;-18
2024/01/31 02:23:14;;;;;;;9.55;4.93;;;10.20;99.90;;;;;;5057795;28;20120;-17
2024/01/31 02:25:40;;;;;;;8.40;4.13;;;10.20;99.90;;;;;;5058932;28;20204;-18
2024/01/31 02:28:06;;;;;;;7.13;3.47;;;10.20;99.90;;;;;;5059039;28;20021;-17
2024/01/31 02:30:31;;;;;;;8.45;4.25;;;10.20;99.90;;;;;;5060125;28;20488;-17
2024/01/31 02:32:57;;;;;;;7.63;3.93;;;10.20;99.90;;;;;;5060707;28;20021;-18
2024/01/31 02:35:26;;;;;;;9.65;4.43;;;10.20;99.90;;;;;;5044348;28;20039;-17
2024/01/31 02:37:52;;;;;;;8.50;4.13;;;10.20;99.90;;;;;;5058626;28;20515;-17
2024/01/31 02:40:18;;;;;;;8.60;3.93;;;10.20;99.90;;;;;;5059694;28;20390;-17
2024/01/31 02:42:44;;;;;;;9.02;4.28;;;10.10;99.90;;;;;;5062553;28;20031;-17
2024/01/31 02:45:10;;;;;;;7.67;4.37;;;10.20;99.90;;;;;;5060409;28;20024;-17
2024/01/31 02:47:36;;;;;;;9.50;4.47;;;10.10;99.90;;;;;;5063318;28;20474;-17
2024/01/31 02:50:03;;;;;;;9.30;4.30;;;10.10;99.90;;;;;;5072684;28;20028;-17
2024/01/31 02:52:29;;;;;;;9.80;4.70;;;10.10;99.90;;;;;;5053661;28;20659;-17
2024/01/31 02:54:55;;;;;;;8.53;4.53;;;10.20;99.90;;;;;;5059543;28;20025;-19
2024/01/31 02:57:20;;;;;;;8.93;4.47;;;10.10;99.90;;;;;;5059026;28;20286;-17
2024/01/31 02:59:46;;;;;;;8.65;4.30;;;10.20;99.90;;;;;;5058343;28;20408;-17
2024/01/31 03:02:15;;;;;;;9.87;4.53;;;9.70;99.90;;;;;;5058816;28;20033;-16
2024/01/31 03:04:41;;;;;;;10.32;4.68;;;10.10;99.90;;;;;;5061847;28;20444;-16
2024/01/31 03:07:07;;;;;;;8.65;4.53;;;10.10;99.90;;;;;;5056439;28;20044;-17
2024/01/31 03:09:33;;;;;;;9.88;4.47;;;10.10;99.90;;;;;;5073361;28;20029;-17
2024/01/31 03:11:59;;;;;;;9.13;4.80;;;10.10;99.90;;;;;;5062435;28;20039;-17
2024/01/31 03:14:25;;;;;;;9.07;4.35;;;10.30;99.90;;;;;;5073207;28;20040;-18
2024/01/31 03:16:50;;;;;;;8.47;4.33;;;10.00;99.90;;;;;;5060376;28;20074;-18
2024/01/31 03:19:16;;;;;;;9.80;4.35;;;10.00;99.90;;;;;;5059981;28;20062;-19
2024/01/31 03:21:42;;;;;;;9.77;4.37;;;10.00;99.90;;;;;;5061560;28;20107;-18
2024/01/31 03:24:10;;;;;;;10.45;4.88;;;10.00;99.90;;;;;;5058652;28;20673;-18
2024/01/31 03:26:35;;;;;;;9.40;4.68;;;10.00;99.90;;;;;;5059569;28;20024;-19
2024/01/31 03:29:02;;;;;;;9.90;4.50;;;9.90;99.90;;;;;;5059765;28;20702;-18
2024/01/31 03:31:30;;;;;;;9.27;4.22;;;9.90;99.90;;;;;;5059235;28;20029;-19
2024/01/31 03:33:55;;;;;;;9.25;4.28;;;9.90;99.90;;;;;;5057559;28;20244;-19
2024/01/31 03:36:21;;;;;;;9.87;4.73;;;9.90;99.90;;;;;;5056850;28;20041;-18
2024/01/31 03:38:47;;;;;;;10.10;4.80;;;10.00;99.90;;;;;;5058262;28;20033;-19
2024/01/31 03:41:12;;;;;;;10.83;4.67;;;9.90;99.90;;;;;;5058301;28;20473;-19
2024/01/31 03:43:38;;;;;;;9.55;4.50;;;9.90;99.90;;;;;;5058704;28;20025;-19
2024/01/31 03:46:05;;;;;;;9.37;4.57;;;9.90;99.90;;;;;;5057575;28;20020;-19
2024/01/31 03:48:31;;;;;;;8.82;4.47;;;9.90;99.90;;;;;;5056952;28;20055;-19
2024/01/31 03:51:00;;;;;;;10.23;4.97;;;10.30;99.90;;;;;;5058366;28;20492;-19
2024/01/31 03:53:26;;;;;;;9.07;4.38;;;9.90;99.90;;;;;;5059085;28;20396;-19
2024/01/31 03:55:52;;;;;;;8.43;4.30;;;9.90;99.90;;;;;;5057506;28;20338;-17
2024/01/31 03:58:17;;;;;;;9.02;4.30;;;9.90;99.90;;;;;;5073278;28;20052;-17
2024/01/31 04:00:44;;;;;;;9.33;3.93;;;9.90;99.90;;;;;;5056797;28;20848;-17
2024/01/31 04:03:10;;;;;;;10.63;4.75;;;9.80;99.90;;;;;;5044508;28;20029;-18
2024/01/31 04:05:36;;;;;;;10.93;4.57;;;8.50;99.90;;;;;;5040594;28;20024;-17
2024/01/31 04:08:02;;;;;;;9.60;4.30;;;9.80;99.90;;;;;;5061430;28;20400;-18
2024/01/31 04:10:27;;;;;;;8.70;4.50;;;9.80;99.90;;;;;;5060255;28;20070;-19
2024/01/31 04:12:53;;;;;;;10.60;4.85;;;9.80;99.90;;;;;;5057986;28;20024;-16
2024/01/31 04:15:19;;;;;;;9.27;4.37;;;9.80;99.90;;;;;;5059687;28;20025;-17
2024/01/31 04:17:45;;;;;;;11.38;5.22;;;9.80;99.90;;;;;;5060275;28;20023;-17
2024/01/31 04:20:11;;;;;;;10.02;4.45;;;9.80;99.90;;;;;;5057800;28;20021;-17
2024/01/31 04:22:38;;;;;;;9.03;3.93;;;9.80;99.90;;;;;;5058237;28;20048;-17
2024/01/31 04:25:04;;;;;;;11.02;4.72;;;9.00;99.90;;;;;;5058919;28;20353;-19
2024/01/31 04:27:30;;;;;;;9.63;4.32;;;9.80;99.90;;;;;;5057607;28;20664;-19
2024/01/31 04:29:56;;;;;;;9.10;4.50;;;9.80;99.90;;;;;;5056643;28;20104;-19
2024/01/31 04:32:25;;;;;;;9.93;4.35;;;9.80;99.90;;;;;;5070491;28;20032;-20
2024/01/31 04:34:51;;;;;;;9.68;4.32;;;9.80;99.90;;;;;;5057213;28;20393;-20
2024/01/31 04:37:17;;;;;;;9.50;4.45;;;9.80;99.90;;;;;;5059873;28;20044;-19
2024/01/31 04:39:43;;;;;;;9.87;4.17;;;9.80;99.90;;;;;;5059082;28;20034;-19
2024/01/31 04:42:09;;;;;;;10.40;4.47;;;9.80;99.90;;;;;;5058524;28;20169;-19
2024/01/31 04:44:35;;;;;;;9.20;4.30;;;9.80;99.90;;;;;;5073310;28;20483;-18
2024/01/31 04:47:01;;;;;;;9.57;4.10;;;9.80;99.90;;;;;;5059233;28;20366;-19
2024/01/31 04:49:27;;;;;;;10.70;4.85;;;9.80;99.90;;;;;;5055175;28;20031;-18
2024/01/31 04:51:53;;;;;;;10.20;4.60;;;9.80;99.90;;;;;;5061171;28;20078;-18
2024/01/31 04:54:19;;;;;;;11.57;4.27;;;9.80;99.90;;;;;;5057531;28;20106;-21
2024/01/31 04:56:45;;;;;;;12.10;4.80;;;9.80;99.90;;;;;;5057754;28;20021;-21
2024/01/31 04:59:11;;;;;;;10.25;4.35;;;9.80;99.90;;;;;;5072899;28;20516;-19
2024/01/31 05:01:37;;;;;;;12.10;4.90;;;9.80;99.90;;;;;;5072159;28;20390;-20
2024/01/31 05:04:03;;;;;;;11.05;4.50;;;9.70;99.90;;;;;;5058323;28;20020;-21
2024/01/31 05:06:28;;;;;;;10.40;4.07;;;9.80;99.90;;;;;;5060715;28;20036;-19
2024/01/31 05:08:54;;;;;;;9.10;4.33;;;9.80;99.90;;;;;;5043422;28;20021;-20
2024/01/31 05:11:20;;;;;;;11.18;4.40;;;9.80;99.90;;;;;;5055899;28;20055;-20
2024/01/31 05:13:45;;;;;;;9.07;4.53;;;9.80;99.90;;;;;;5058359;28;20036;-20
2024/01/31 05:16:11;;;;;;;9.40;4.35;;;9.80;99.90;;;;;;5053099;28;20041;-18
2024/01/31 05:18:37;;;;;;;10.60;4.03;;;9.80;99.90;;;;;;5053458;28;20059;-18
2024/01/31 05:21:03;;;;;;;10.45;4.50;;;9.70;99.90;;;;;;5056672;28;20032;-19
2024/01/31 05:23:29;;;;;;;11.03;4.63;;;9.70;99.90;;;;;;5053637;28;20055;-19
2024/01/31 05:25:54;;;;;;;11.18;4.43;;;9.70;99.90;;;;;;5057645;28;20058;-19
2024/01/31 05:28:20;;;;;;;10.93;4.60;;;9.70;99.90;;;;;;5057864;28;20032;-19
2024/01/31 05:30:47;;;;;;;11.73;4.55;;;9.70;99.90;;;;;;5054700;28;20032;-20
2024/01/31 05:33:12;;;;;;;10.95;4.68;;;9.70;99.90;;;;;;5042179;28;20044;-20
2024/01/31 05:35:38;;;;;;;9.07;4.13;;;9.70;99.90;;;;;;5057132;28;20091;-17
2024/01/31 05:38:05;;;;;;;11.35;4.68;;;9.70;99.90;;;;;;5058662;28;20413;-17
2024/01/31 05:40:31;;;;;;;9.90;4.30;;;9.70;99.90;;;;;;5058988;28;20328;-17
2024/01/31 05:42:57;;;;;;;11.32;4.68;;;9.70;99.90;;;;;;5040276;28;20111;-18
2024/01/31 05:45:23;;;;;;;11.60;4.88;;;9.70;99.90;;;;;;5059008;28;20090;-19
2024/01/31 05:47:50;;;;;;;11.43;4.80;;;9.70;99.90;;;;;;5055569;28;20039;-18
2024/01/31 05:50:15;;;;;;;10.57;4.70;;;9.70;99.90;;;;;;5054869;28;20036;-18
2024/01/31 05:52:41;;;;;;;9.88;4.10;;;9.70;99.90;;;;;;5072017;28;20086;-17
2024/01/31 05:55:07;;;;;;;10.63;4.60;;;9.70;99.90;;;;;;5053837;28;20032;-18
2024/01/31 05:57:33;;;;;;;11.00;4.57;;;9.70;99.90;;;;;;5072518;28;20593;-17
2024/01/31 05:59:59;;;;;;;10.98;4.28;;;9.70;99.90;;;;;;5059744;28;20037;-17
2024/01/31 06:02:24;;;;;;;10.63;4.57;;;9.70;99.90;;;;;;5055342;28;20512;-17
2024/01/31 06:04:50;;;;;;;11.57;4.28;;;9.70;99.90;;;;;;5054799;28;20037;-17
2024/01/31 06:07:16;;;;;;;12.33;4.60;;;9.60;99.90;;;;;;5056655;28;20467;-17
2024/01/31 06:09:43;;;;;;;11.32;4.55;;;9.70;99.90;;;;;;5056895;28;20447;-17
2024/01/31 06:12:08;;;;;;;11.93;4.45;;;9.70;99.90;;;;;;5054277;28;20087;-19
2024/01/31 06:14:37;;;;;;;11.60;4.63;;;9.60;99.90;;;;;;5057276;28;20484;-17
2024/01/31 06:17:03;;;;;;;11.07;4.70;;;9.60;99.90;;;;;;5057027;28;20033;-18
2024/01/31 06:19:29;;;;;;;9.70;4.00;;;9.60;99.90;;;;;;5057504;28;20040;-18
2024/01/31 06:21:55;;;;;;;12.32;4.95;;;9.60;99.90;;;;;;5072746;28;20060;-19
2024/01/31 06:24:21;;;;;;;11.13;4.77;;;9.60;99.90;;;;;;5058641;28;20443;-18
2024/01/31 06:26:47;;;;;;;12.70;5.30;;;9.60;99.90;;;;;;5062883;28;20535;-17
2024/01/31 06:29:18;;;;;;;10.50;4.20;;;9.60;99.90;;;;;;5065172;28;20530;-18
2024/01/31 06:31:47;;;;;;;12.13;5.00;;;9.60;99.90;;;;;;5074332;28;20108;-17
2024/01/31 06:34:16;;;;;;;13.23;4.47;;;9.60;99.90;;;;;;5058757;28;20024;-18
2024/01/31 06:36:43;;;;;;;12.88;5.00;;;9.60;99.90;;;;;;5059856;28;20032;-17
2024/01/31 06:39:09;;;;;;;11.60;4.70;;;9.60;99.90;;;;;;5059039;28;20248;-17
2024/01/31 06:41:36;;;;;;;12.35;4.68;;;9.60;99.90;;;;;;5061424;28;20522;-18
2024/01/31 06:44:02;;;;;;;12.60;4.80;;;9.60;99.90;;;;;;5059468;28;20025;-19
2024/01/31 06:46:29;;;;;;;11.73;4.50;;;9.60;99.90;;;;;;5061619;28;20036;-17
2024/01/31 06:48:55;;;;;;;13.02;4.95;;;9.60;99.90;;;;;;5058790;28;20032;-18
2024/01/31 06:51:21;;;;;;;13.70;4.80;;;9.60;99.90;;;;;;5061715;28;20039;-17
2024/01/31 06:53:47;;;;;;;12.75;4.70;;;9.50;99.90;;;;;;5058167;28;20356;-18
2024/01/31 06:56:19;;;;;;;11.63;4.70;;;9.50;99.90;;;;;;5055232;28;20040;-17
2024/01/31 06:58:46;;;;;;;13.60;5.18;;;9.50;99.90;;;;;;5072215;28;20056;-17
2024/01/31 07:01:18;;;;;;;11.90;4.83;;;9.50;99.90;;;;;;5059035;28;20044;-18
2024/01/31 07:03:45;;;;;;;11.68;4.18;;;9.50;99.90;;;;;;5059256;28;20028;-17
2024/01/31 07:06:15;;;;;;;13.88;5.05;;;9.50;99.90;;;;;;5052111;28;20029;-18
2024/01/31 07:08:41;;;;;;;11.15;4.55;;;9.50;99.90;;;;;;5062389;28;20030;-17
2024/01/31 07:11:10;;;;;;;11.07;4.97;;;9.50;99.90;;;;;;5057925;28;20028;-17
2024/01/31 07:13:38;;;;;;;12.40;4.97;;;9.50;99.90;;;;;;5059753;28;20028;-17
2024/01/31 07:16:09;;;;;;;11.20;4.97;;;9.50;99.90;;;;;;5059625;28;20029;-18
2024/01/31 07:18:36;;;;;;;14.73;5.75;;;9.50;99.90;;;;;;5057442;28;20029;-17
2024/01/31 07:21:01;;;;;;;13.90;6.35;;;9.60;99.90;;;;;;5062676;28;20036;-18
2024/01/31 07:23:27;;;;;;;14.17;5.63;;;9.50;99.90;;;;;;5055351;28;20393;-18
2024/01/31 07:25:53;;;;;;;10.85;5.00;;;9.50;99.90;;;;;;5058972;28;20400;-17
2024/01/31 07:28:20;;;;;;;10.30;4.80;;;9.50;99.90;;;;;;5060000;28;20389;-17
2024/01/31 07:30:46;;;;;;;13.65;5.40;;;9.50;99.90;;;;;;5056722;28;20487;-17
2024/01/31 07:33:12;;;;;;;12.07;4.93;;;9.50;99.90;;;;;;5056961;28;20113;-17
2024/01/31 07:35:38;;;;;;;11.90;4.83;;;9.50;99.90;;;;;;5060004;28;20040;-18
2024/01/31 07:38:04;;;;;;;12.20;5.20;;;9.50;99.90;;;;;;5061553;28;20123;-19
2024/01/31 07:40:29;;;;;;;11.47;4.87;;;9.50;99.90;;;;;;5042256;28;20448;-18
2024/01/31 07:42:55;;;;;;;13.50;5.43;;;9.50;99.90;;;;;;5056759;28;20246;-18
2024/01/31 07:45:21;;;;;;;10.95;4.95;;;9.50;99.90;;;;;;5055082;28;20028;-17
2024/01/31 07:47:47;;;;;;;11.80;4.93;;;9.50;99.90;;;;;;5060244;28;20498;-17
2024/01/31 07:50:13;;;;;;;12.97;4.83;;;9.50;99.90;;;;;;5060758;28;20035;-17
2024/01/31 07:52:40;;;;;;;13.07;5.20;;;9.50;99.90;;;;;;5052332;28;20297;-17
2024/01/31 07:55:07;;;;;;;11.75;5.28;;;9.50;99.90;;;;;;5058256;28;20029;-18
2024/01/31 07:57:33;;;;;;;12.93;5.07;;;9.60;99.90;;;;;;5050533;28;20109;-18
2024/01/31 07:59:59;;;;;;;9.93;4.63;;;9.50;99.90;;;;;;5051515;28;20040;-17
2024/01/31 08:02:24;;;;;;;12.50;5.57;;;9.60;99.90;;;;;;5055261;28;20667;-17
2024/01/31 08:04:51;;;;;;;11.83;4.90;;;9.60;99.90;;;;;;5038049;28;20037;-18
2024/01/31 08:07:16;;;;;;;13.57;5.78;;;9.50;99.90;;;;;;5057166;28;20048;-18
2024/01/31 08:09:42;;;;;;;13.05;5.50;;;9.60;99.90;;;;;;5059433;28;20032;-18
2024/01/31 08:12:08;;;;;;;12.37;5.00;;;9.50;99.90;;;;;;5059755;28;20029;-18
2024/01/31 08:14:34;;;;;;;10.63;4.68;;;9.60;99.90;;;;;;5058883;28;20036;-17
2024/01/31 08:16:59;;;;;;;11.88;5.15;;;9.60;99.90;;;;;;5052935;28;20040;-19
2024/01/31 08:19:25;;;;;;;13.03;5.40;;;9.60;99.90;;;;;;5058663;28;20063;-19
2024/01/31 08:21:51;;;;;;;11.43;5.20;;;9.60;99.90;;;;;;5061832;28;20033;-19
2024/01/31 08:24:18;;;;;;;11.47;5.13;;;9.60;99.90;;;;;;5071058;28;20074;-17
2024/01/31 08:26:44;;;;;;;13.73;6.03;;;9.60;99.90;;;;;;5060214;28;20473;-18
2024/01/31 08:29:10;;;;;;;13.88;5.65;;;9.60;99.90;;;;;;5051280;28;20085;-18
2024/01/31 08:31:36;;;;;;;11.60;4.95;;;9.60;99.90;;;;;;5057217;28;20029;-18
2024/01/31 08:34:02;;;;;;;13.67;5.53;;;9.70;99.90;;;;;;5054760;28;20074;-18
2024/01/31 08:36:28;;;;;;;12.40;5.38;;;9.70;99.90;;;;;;5058994;28;20024;-18
2024/01/31 08:38:53;;;;;;;12.35;5.80;;;9.70;99.90;;;;;;5072455;28;20037;-17
2024/01/31 08:41:19;;;;;;;12.97;5.60;;;9.70;99.90;;;;;;5058944;28;20107;-20
2024/01/31 08:43:46;;;;;;;13.98;6.40;;;9.70;99.90;;;;;;5071261;28;20106;-17
2024/01/31 08:46:13;;;;;;;13.52;5.68;;;9.70;99.90;;;;;;5073860;28;20039;-19
2024/01/31 08:48:39;;;;;;;12.30;5.33;;;8.70;99.90;;;;;;5054345;28;20028;-20
2024/01/31 08:51:06;;;;;;;12.15;5.32;;;9.80;99.90;;;;;;5054846;28;20021;-21
2024/01/31 08:53:32;;;;;;;11.20;5.05;;;9.70;99.90;;;;;;5055267;28;20104;-20
2024/01/31 08:55:57;;;;;;;12.77;5.63;;;9.80;99.90;;;;;;5057044;28;20391;-20
2024/01/31 08:58:23;;;;;;;13.07;5.67;;;9.80;99.90;;;;;;5056168;28;20025;-19
2024/01/31 09:00:49;;;;;;;11.82;4.93;;;9.80;99.90;;;;;;5054447;28;20033;-20
2024/01/31 09:03:15;;;;;;;13.90;5.80;;;9.80;99.90;;;;;;5049937;28;20029;-19
2024/01/31 09:05:40;;;;;;;12.87;5.87;;;9.10;99.90;;;;;;5059759;28;20078;-19
2024/01/31 09:08:06;;;;;;;12.18;5.60;;;9.80;99.90;;;;;;5053317;28;20036;-19
2024/01/31 09:10:32;;;;;;;11.27;5.07;;;9.80;99.90;;;;;;5055820;28;20408;-19
2024/01/31 09:12:58;;;;;;;11.52;5.03;;;9.80;99.90;;;;;;5059382;28;20052;-20
2024/01/31 09:15:24;;;;;;;12.93;6.17;;;9.80;99.90;;;;;;5056172;28;20083;-20
2024/01/31 09:17:51;;;;;;;14.18;5.70;;;9.90;99.90;;;;;;5042016;28;20027;-19
2024/01/31 09:20:17;;;;;;;13.40;5.68;;;9.90;99.90;;;;;;5054981;28;20028;-19
2024/01/31 09:22:43;;;;;;;11.83;5.70;;;9.90;99.90;;;;;;5074805;28;20059;-19
2024/01/31 09:25:10;;;;;;;11.27;5.38;;;9.90;99.90;;;;;;5060145;28;20484;-19
2024/01/31 09:27:36;;;;;;;11.93;5.32;;;9.80;99.90;;;;;;5061785;28;20013;-20
2024/01/31 09:30:03;;;;;;;12.60;5.60;;;9.90;99.90;;;;;;5043516;28;20421;-22
2024/01/31 09:32:29;;;;;;;12.35;5.88;;;9.90;99.90;;;;;;5042512;28;20032;-21
2024/01/31 09:34:55;;;;;;;11.95;5.60;;;9.90;99.90;;;;;;5056526;28;20033;-23
2024/01/31 09:37:21;;;;;;;12.03;5.07;;;9.90;99.90;;;;;;5056787;28;20056;-20
2024/01/31 09:39:46;;;;;;;9.95;4.65;;;9.90;99.90;;;;;;5072320;28;20024;-21
2024/01/31 09:42:12;;;;;;;10.93;4.90;;;9.90;99.90;;;;;;5058679;28;20306;-21
2024/01/31 09:44:39;;;;;;;9.85;5.00;;;9.90;99.90;;;;;;5056748;28;20327;-22
2024/01/31 09:47:06;;;;;;;9.43;5.13;;;10.00;99.90;;;;;;5059185;28;20083;-22
2024/01/31 09:49:32;;;;;;;10.30;4.65;;;8.90;99.90;;;;;;5055088;28;20387;-21
2024/01/31 09:51:59;;;;;;;12.13;5.47;;;9.90;99.90;;;;;;5071221;28;20247;-20
2024/01/31 09:54:26;;;;;;;10.75;4.80;;;10.00;99.90;;;;;;5058316;28;20129;-20
2024/01/31 09:56:52;;;;;;;11.85;5.40;;;10.10;99.90;;;;;;5056632;28;20033;-19
2024/01/31 09:59:18;;;;;;;10.00;5.20;;;10.00;99.90;;;;;;5058195;28;20044;-18
2024/01/31 10:01:46;;;;;;;10.07;4.70;;;10.10;99.90;;;;;;5063815;28;20286;-18
2024/01/31 10:04:13;;;;;;;9.52;4.38;;;10.10;99.90;;;;;;5061887;28;20419;-18
2024/01/31 10:06:39;;;;;;;10.18;4.97;;;10.10;99.90;;;;;;5062661;28;20027;-18
2024/01/31 10:09:06;;;;;;;8.98;4.45;;;10.20;99.90;;;;;;5060102;28;20024;-17
2024/01/31 10:11:32;;;;;;;11.18;4.95;;;10.20;99.90;;;;;;5062617;28;20032;-19
2024/01/31 10:13:58;;;;;;;8.90;4.57;;;10.20;99.90;;;;;;5061834;28;20032;-18
2024/01/31 10:16:24;;;;;;;8.27;4.47;;;10.20;99.90;;;;;;5061050;28;20115;-18
2024/01/31 10:18:54;;;;;;;7.97;4.00;;;10.20;99.90;;;;;;5060114;28;20036;-19
2024/01/31 10:21:20;;;;;;;6.90;4.00;;;10.20;99.90;;;;;;5075622;28;20566;-18
2024/01/31 10:23:56;;;;;;;6.90;3.38;;;10.30;99.90;;;;;;5060977;28;20054;-18
2024/01/31 10:26:22;;;;;;;5.93;3.03;;;10.30;99.90;;;;;;5061049;28;20126;-18
2024/01/31 10:28:48;;;;;;;6.22;3.10;;;10.30;99.90;;;;;;5061372;28;20020;-19
2024/01/31 10:31:14;;;;;;;5.30;2.70;;;10.30;99.90;;;;;;5062602;28;20090;-19
2024/01/31 10:33:40;;;;;;;4.63;2.60;;;10.30;99.90;;;;;;5060593;28;20027;-19
2024/01/31 10:36:08;;;;;;;4.70;2.78;;;10.30;99.90;;;;;;5060397;28;20036;-19
2024/01/31 10:38:34;;;;;;;4.30;2.57;;;10.30;99.90;;;;;;5060850;28;20082;-18
2024/01/31 10:41:00;;;;;;;3.03;1.92;;;10.30;99.90;;;;;;5055450;28;20033;-18
2024/01/31 10:43:27;;;;;;;4.32;2.20;;;10.30;99.90;;;;;;5058774;28;20474;-19
2024/01/31 10:45:53;;;;;;;3.53;1.83;;;10.30;99.90;;;;;;5058456;28;20052;-19
2024/01/31 10:48:18;;;;;;;4.03;1.90;;;10.30;99.90;;;;;;5060025;28;20051;-18
2024/01/31 10:50:44;;;;;;;4.55;2.00;;;10.30;99.90;;;;;;5074698;28;20114;-19
2024/01/31 10:53:12;;;;;;;3.58;2.05;;;10.30;99.90;;;;;;5059798;28;20039;-19
2024/01/31 10:55:39;;;;;;;3.63;1.77;;;10.20;99.90;;;;;;5059358;28;20021;-19
2024/01/31 10:58:05;;;;;;;3.77;1.90;;;10.20;99.90;;;;;;5063337;28;20024;-19
2024/01/31 11:00:32;;;;;;;3.40;1.88;;;10.20;99.90;;;;;;5061022;28;20711;-19
2024/01/31 11:02:59;;;;;;;4.15;1.83;;;10.20;99.90;;;;;;5059907;28;20049;-20
2024/01/31 11:05:29;;;;;;;4.03;2.10;;;10.20;99.90;;;;;;5059734;28;20021;-18
2024/01/31 11:07:55;;;;;;;3.03;1.60;;;10.20;99.90;;;;;;5074798;28;20035;-18
2024/01/31 11:10:22;;;;;;;3.17;1.60;;;10.20;99.90;;;;;;5057423;28;20028;-18
2024/01/31 11:13:04;;;;;;;3.55;1.83;;;10.30;99.90;;;;;;5059651;28;20037;-18
2024/01/31 11:15:35;;;;;;;4.20;1.65;;;10.30;99.90;;;;;;5091035;27;20032;-19
2024/01/31 11:18:06;;;;;;;2.55;1.58;;;10.30;99.90;;;;;;5056581;28;20051;-18
2024/01/31 11:20:36;;;;;;;2.78;1.55;;;10.30;99.90;;;;;;5060311;28;20047;-18
2024/01/31 11:23:05;;;;;;;2.23;1.40;;;10.40;99.90;;;;;;5062239;28;20126;-19
2024/01/31 11:25:36;;;;;;;2.35;1.35;;;10.40;99.90;;;;;;5060120;28;20023;-18
2024/01/31 11:28:04;;;;;;;3.25;1.75;;;10.50;99.90;;;;;;5055779;28;20550;-19
2024/01/31 11:30:31;;;;;;;2.15;1.40;;;10.50;99.90;;;;;;5059445;28;20473;-18
2024/01/31 11:32:59;;;;;;;2.67;1.30;;;10.50;99.90;;;;;;5060732;28;20107;-18
2024/01/31 11:35:25;;;;;;;3.80;1.47;;;10.60;99.90;;;;;;5058809;28;20031;-20
2024/01/31 11:37:56;;;;;;;2.95;1.40;;;10.70;99.90;;;;;;5059533;28;20021;-19
2024/01/31 11:40:22;;;;;;;2.75;1.48;;;10.60;99.90;;;;;;5053598;28;20035;-18
2024/01/31 11:42:48;;;;;;;2.90;1.50;;;10.60;99.90;;;;;;5055381;28;20028;-18
2024/01/31 11:45:15;;;;;;;3.07;1.53;;;10.70;99.90;;;;;;5058914;28;20016;-17
2024/01/31 11:47:42;;;;;;;1.88;1.20;;;10.70;99.90;;;;;;5061811;28;20048;-20
2024/01/31 11:50:08;;;;;;;1.83;1.23;;;10.80;99.90;;;;;;5056454;28;20052;-19
2024/01/31 11:52:33;;;;;;;2.30;1.35;;;10.80;99.90;;;;;;5055491;28;20085;-18
2024/01/31 11:54:59;;;;;;;2.53;1.20;;;9.50;99.90;;;;;;5058672;28;20257;-18
2024/01/31 11:57:28;;;;;;;3.25;1.30;;;10.80;99.90;;;;;;5056683;28;20081;-19
2024/01/31 11:59:54;;;;;;;1.95;1.23;;;10.80;99.90;;;;;;5058257;28;20112;-18
2024/01/31 12:02:20;;;;;;;1.80;1.20;;;10.90;99.90;;;;;;5053504;28;20047;-22
2024/01/31 12:04:56;;;;;;;1.90;1.20;;;11.00;99.90;;;;;;5060261;28;20027;-18
2024/01/31 12:07:22;;;;;;;2.55;1.42;;;11.00;99.90;;;;;;5057081;28;20051;-18
2024/01/31 12:09:48;;;;;;;1.80;1.30;;;11.00;99.90;;;;;;5039904;28;20033;-19
2024/01/31 12:12:14;;;;;;;2.50;1.48;;;11.00;99.90;;;;;;5060666;28;20033;-20
2024/01/31 12:14:41;;;;;;;3.37;1.27;;;11.10;99.90;;;;;;5058985;28;20032;-21
2024/01/31 12:17:26;;;;;;;2.58;1.30;;;11.10;99.90;;;;;;5058983;28;20214;-20
2024/01/31 12:20:06;;;;;;;2.10;1.20;;;11.10;99.90;;;;;;5057536;28;20025;-19
2024/01/31 12:22:32;;;;;;;1.67;1.13;;;11.20;99.90;;;;;;5071362;28;20443;-18
2024/01/31 12:24:59;;;;;;;2.15;1.40;;;11.20;99.90;;;;;;5057400;28;20009;-19
2024/01/31 12:27:25;;;;;;;2.30;1.40;;;11.30;99.90;;;;;;5057930;28;20028;-19
2024/01/31 12:29:51;;;;;;;2.05;1.40;;;11.30;99.90;;;;;;5062260;28;20021;-19
2024/01/31 12:32:17;;;;;;;2.70;1.50;;;11.30;99.90;;;;;;5075420;28;20312;-19
2024/01/31 12:34:43;;;;;;;2.67;1.57;;;11.40;99.90;;;;;;5058749;28;20396;-17
2024/01/31 12:37:09;;;;;;;2.28;1.50;;;11.40;99.90;;;;;;5058997;28;20032;-18
2024/01/31 12:39:35;;;;;;;2.45;1.30;;;11.40;99.90;;;;;;5058789;28;20024;-18
2024/01/31 12:42:03;;;;;;;1.83;1.47;;;11.40;99.90;;;;;;5056768;28;20095;-20
2024/01/31 12:44:29;;;;;;;3.63;1.50;;;11.40;99.90;;;;;;5074183;28;20024;-18